sensor_id;sensor_type;location;lat;lon;timestamp;temperature;humidity
61641;HTU21D;62201;49.966;8.342;2023-12-22T00:00:12;4.58;118.99
61641;HTU21D;62201;49.966;8.342;2023-12-22T00:02:38;4.63;118.99
61641;HTU21D;62201;49.966;8.342;2023-12-22T00:05:04;4.60;118.99
61641;HTU21D;62201;49.966;8.342;2023-12-22T00:07:30;4.63;118.99
61641;HTU21D;62201;49.966;8.342;2023-12-22T00:09:55;4.66;118.99
61641;HTU21D;62201;49.966;8.342;2023-12-22T00:12:21;4.61;118.99
61641;HTU21D;62201;49.966;8.342;2023-12-22T00:14:46;4.74;118.99
61641;HTU21D;62201;49.966;8.342;2023-12-22T00:17:12;4.72;118.99
61641;HTU21D;62201;49.966;8.342;2023-12-22T00:19:37;4.63;118.99
61641;HTU21D;62201;49.966;8.342;2023-12-22T00:22:03;4.67;118.99
61641;HTU21D;62201;49.966;8.342;2023-12-22T00:24:29;4.76;118.99
61641;HTU21D;62201;49.966;8.342;2023-12-22T00:26:54;4.74;118.99
61641;HTU21D;62201;49.966;8.342;2023-12-22T00:29:20;4.72;118.99
61641;HTU21D;62201;49.966;8.342;2023-12-22T00:31:45;4.75;118.99
61641;HTU21D;62201;49.966;8.342;2023-12-22T00:34:10;4.72;118.99
61641;HTU21D;62201;49.966;8.342;2023-12-22T00:36:36;4.83;118.99
61641;HTU21D;62201;49.966;8.342;2023-12-22T00:39:01;4.84;118.99
61641;HTU21D;62201;49.966;8.342;2023-12-22T00:41:27;4.89;118.99
61641;HTU21D;62201;49.966;8.342;2023-12-22T00:43:52;4.90;118.99
61641;HTU21D;62201;49.966;8.342;2023-12-22T00:46:17;5.01;118.99
61641;HTU21D;62201;49.966;8.342;2023-12-22T00:48:43;5.07;118.99
61641;HTU21D;62201;49.966;8.342;2023-12-22T00:51:08;5.09;118.99
61641;HTU21D;62201;49.966;8.342;2023-12-22T00:53:33;5.12;118.99
61641;HTU21D;62201;49.966;8.342;2023-12-22T00:56:00;5.02;118.99
61641;HTU21D;62201;49.966;8.342;2023-12-22T00:58:26;4.97;118.99
61641;HTU21D;62201;49.966;8.342;2023-12-22T01:00:52;5.02;118.99
61641;HTU21D;62201;49.966;8.342;2023-12-22T01:03:17;5.11;118.99
61641;HTU21D;62201;49.966;8.342;2023-12-22T01:05:42;5.09;118.99
61641;HTU21D;62201;49.966;8.342;2023-12-22T01:08:08;5.09;118.99
61641;HTU21D;62201;49.966;8.342;2023-12-22T01:10:33;5.24;118.99
61641;HTU21D;62201;49.966;8.342;2023-12-22T01:12:58;5.32;118.99
61641;HTU21D;62201;49.966;8.342;2023-12-22T01:15:24;5.22;118.99
61641;HTU21D;62201;49.966;8.342;2023-12-22T01:17:49;5.17;118.99
61641;HTU21D;62201;49.966;8.342;2023-12-22T01:20:15;5.09;118.99
61641;HTU21D;62201;49.966;8.342;2023-12-22T01:22:40;5.11;118.99
61641;HTU21D;62201;49.966;8.342;2023-12-22T01:25:06;5.10;118.99
61641;HTU21D;62201;49.966;8.342;2023-12-22T01:27:31;5.10;118.99
61641;HTU21D;62201;49.966;8.342;2023-12-22T01:29:57;5.10;118.99
61641;HTU21D;62201;49.966;8.342;2023-12-22T01:32:22;5.16;118.99
61641;HTU21D;62201;49.966;8.342;2023-12-22T01:34:47;5.17;118.99
61641;HTU21D;62201;49.966;8.342;2023-12-22T01:37:13;5.13;118.99
61641;HTU21D;62201;49.966;8.342;2023-12-22T01:39:38;5.13;118.99
61641;HTU21D;62201;49.966;8.342;2023-12-22T01:42:04;5.18;118.99
61641;HTU21D;62201;49.966;8.342;2023-12-22T01:44:29;5.19;118.99
61641;HTU21D;62201;49.966;8.342;2023-12-22T01:46:55;5.25;118.99
61641;HTU21D;62201;49.966;8.342;2023-12-22T01:49:21;5.26;118.99
61641;HTU21D;62201;49.966;8.342;2023-12-22T01:51:48;5.21;118.99
61641;HTU21D;62201;49.966;8.342;2023-12-22T01:54:14;5.20;118.99
61641;HTU21D;62201;49.966;8.342;2023-12-22T01:56:41;5.20;118.99
61641;HTU21D;62201;49.966;8.342;2023-12-22T01:59:07;5.18;118.99
61641;HTU21D;62201;49.966;8.342;2023-12-22T02:01:33;5.17;118.99
61641;HTU21D;62201;49.966;8.342;2023-12-22T02:03:59;5.13;118.99
61641;HTU21D;62201;49.966;8.342;2023-12-22T02:06:24;5.06;118.99
61641;HTU21D;62201;49.966;8.342;2023-12-22T02:08:50;5.09;118.99
61641;HTU21D;62201;49.966;8.342;2023-12-22T02:11:16;5.07;118.99
61641;HTU21D;62201;49.966;8.342;2023-12-22T02:13:42;5.08;118.99
61641;HTU21D;62201;49.966;8.342;2023-12-22T02:16:18;5.04;118.99
61641;HTU21D;62201;49.966;8.342;2023-12-22T02:18:47;5.01;118.99
61641;HTU21D;62201;49.966;8.342;2023-12-22T02:21:13;5.06;118.99
61641;HTU21D;62201;49.966;8.342;2023-12-22T02:23:38;5.06;118.99
61641;HTU21D;62201;49.966;8.342;2023-12-22T02:26:23;5.03;118.99
61641;HTU21D;62201;49.966;8.342;2023-12-22T02:28:50;5.08;118.99
61641;HTU21D;62201;49.966;8.342;2023-12-22T02:31:19;5.04;118.99
61641;HTU21D;62201;49.966;8.342;2023-12-22T02:33:47;5.04;118.99
61641;HTU21D;62201;49.966;8.342;2023-12-22T02:36:15;5.03;118.99
61641;HTU21D;62201;49.966;8.342;2023-12-22T02:38:42;5.05;118.99
61641;HTU21D;62201;49.966;8.342;2023-12-22T02:41:08;5.04;118.99
61641;HTU21D;62201;49.966;8.342;2023-12-22T02:43:34;5.01;118.99
61641;HTU21D;62201;49.966;8.342;2023-12-22T02:45:59;5.04;118.99
61641;HTU21D;62201;49.966;8.342;2023-12-22T02:48:24;5.02;118.99
61641;HTU21D;62201;49.966;8.342;2023-12-22T02:50:50;5.03;118.99
61641;HTU21D;62201;49.966;8.342;2023-12-22T02:53:16;5.00;118.99
61641;HTU21D;62201;49.966;8.342;2023-12-22T02:55:41;4.95;118.99
61641;HTU21D;62201;49.966;8.342;2023-12-22T02:58:06;4.94;118.99
61641;HTU21D;62201;49.966;8.342;2023-12-22T03:00:32;4.96;118.99
61641;HTU21D;62201;49.966;8.342;2023-12-22T03:02:57;5.00;118.99
61641;HTU21D;62201;49.966;8.342;2023-12-22T03:05:22;5.01;118.99
61641;HTU21D;62201;49.966;8.342;2023-12-22T03:07:47;4.96;118.99
61641;HTU21D;62201;49.966;8.342;2023-12-22T03:10:13;5.02;118.99
61641;HTU21D;62201;49.966;8.342;2023-12-22T03:12:38;5.03;118.99
61641;HTU21D;62201;49.966;8.342;2023-12-22T03:15:04;5.05;118.99
61641;HTU21D;62201;49.966;8.342;2023-12-22T03:17:30;5.10;118.99
61641;HTU21D;62201;49.966;8.342;2023-12-22T03:19:55;5.17;118.99
61641;HTU21D;62201;49.966;8.342;2023-12-22T03:22:21;5.23;118.99
61641;HTU21D;62201;49.966;8.342;2023-12-22T03:24:46;5.25;118.99
61641;HTU21D;62201;49.966;8.342;2023-12-22T03:27:12;5.40;118.99
61641;HTU21D;62201;49.966;8.342;2023-12-22T03:29:42;5.56;118.99
61641;HTU21D;62201;49.966;8.342;2023-12-22T03:32:07;5.62;118.99
61641;HTU21D;62201;49.966;8.342;2023-12-22T03:34:32;5.63;118.99
61641;HTU21D;62201;49.966;8.342;2023-12-22T03:36:58;5.62;118.99
61641;HTU21D;62201;49.966;8.342;2023-12-22T03:39:23;5.63;118.99
61641;HTU21D;62201;49.966;8.342;2023-12-22T03:41:48;5.57;118.99
61641;HTU21D;62201;49.966;8.342;2023-12-22T03:44:14;5.56;118.99
61641;HTU21D;62201;49.966;8.342;2023-12-22T03:46:39;5.57;118.99
61641;HTU21D;62201;49.966;8.342;2023-12-22T03:49:04;5.62;118.99
61641;HTU21D;62201;49.966;8.342;2023-12-22T03:51:30;5.57;118.99
61641;HTU21D;62201;49.966;8.342;2023-12-22T03:53:55;5.62;118.99
61641;HTU21D;62201;49.966;8.342;2023-12-22T03:56:20;5.61;118.99
61641;HTU21D;62201;49.966;8.342;2023-12-22T03:58:46;5.65;118.99
61641;HTU21D;62201;49.966;8.342;2023-12-22T04:01:14;5.78;118.99
61641;HTU21D;62201;49.966;8.342;2023-12-22T04:03:40;6.54;118.99
61641;HTU21D;62201;49.966;8.342;2023-12-22T04:06:05;6.80;118.99
61641;HTU21D;62201;49.966;8.342;2023-12-22T04:08:31;6.91;118.99
61641;HTU21D;62201;49.966;8.342;2023-12-22T04:10:56;6.99;118.99
61641;HTU21D;62201;49.966;8.342;2023-12-22T04:13:21;6.79;118.99
61641;HTU21D;62201;49.966;8.342;2023-12-22T04:15:47;6.93;116.89
61641;HTU21D;62201;49.966;8.342;2023-12-22T04:18:12;7.13;114.01
61641;HTU21D;62201;49.966;8.342;2023-12-22T04:20:37;7.19;112.24
61641;HTU21D;62201;49.966;8.342;2023-12-22T04:23:03;7.05;111.92
61641;HTU21D;62201;49.966;8.342;2023-12-22T04:25:28;6.98;112.06
61641;HTU21D;62201;49.966;8.342;2023-12-22T04:27:54;6.76;113.14
61641;HTU21D;62201;49.966;8.342;2023-12-22T04:30:19;6.97;110.50
61641;HTU21D;62201;49.966;8.342;2023-12-22T04:32:45;6.97;110.14
61641;HTU21D;62201;49.966;8.342;2023-12-22T04:35:10;6.95;110.44
61641;HTU21D;62201;49.966;8.342;2023-12-22T04:37:35;6.98;109.81
61641;HTU21D;62201;49.966;8.342;2023-12-22T04:40:01;6.97;109.65
61641;HTU21D;62201;49.966;8.342;2023-12-22T04:42:27;7.01;109.37
61641;HTU21D;62201;49.966;8.342;2023-12-22T04:44:52;6.99;109.43
61641;HTU21D;62201;49.966;8.342;2023-12-22T04:47:18;7.19;107.68
61641;HTU21D;62201;49.966;8.342;2023-12-22T04:49:43;7.08;108.00
61641;HTU21D;62201;49.966;8.342;2023-12-22T04:52:10;7.25;107.10
61641;HTU21D;62201;49.966;8.342;2023-12-22T04:54:36;7.07;108.46
61641;HTU21D;62201;49.966;8.342;2023-12-22T04:57:01;7.13;107.82
61641;HTU21D;62201;49.966;8.342;2023-12-22T04:59:27;7.12;108.22
61641;HTU21D;62201;49.966;8.342;2023-12-22T05:01:52;7.22;107.15
61641;HTU21D;62201;49.966;8.342;2023-12-22T05:04:18;7.23;107.53
61641;HTU21D;62201;49.966;8.342;2023-12-22T05:06:43;7.23;107.37
61641;HTU21D;62201;49.966;8.342;2023-12-22T05:09:10;7.19;107.74
61641;HTU21D;62201;49.966;8.342;2023-12-22T05:11:35;7.27;107.08
61641;HTU21D;62201;49.966;8.342;2023-12-22T05:14:01;7.19;108.20
61641;HTU21D;62201;49.966;8.342;2023-12-22T05:16:26;6.94;110.22
61641;HTU21D;62201;49.966;8.342;2023-12-22T05:18:53;7.09;108.43
61641;HTU21D;62201;49.966;8.342;2023-12-22T05:21:18;7.10;107.80
61641;HTU21D;62201;49.966;8.342;2023-12-22T05:23:44;7.07;107.51
61641;HTU21D;62201;49.966;8.342;2023-12-22T05:26:09;6.99;107.88
61641;HTU21D;62201;49.966;8.342;2023-12-22T05:28:34;7.10;106.37
61641;HTU21D;62201;49.966;8.342;2023-12-22T05:31:00;7.16;105.85
61641;HTU21D;62201;49.966;8.342;2023-12-22T05:33:25;7.31;104.51
61641;HTU21D;62201;49.966;8.342;2023-12-22T05:35:52;7.19;105.79
61641;HTU21D;62201;49.966;8.342;2023-12-22T05:38:17;7.13;106.24
61641;HTU21D;62201;49.966;8.342;2023-12-22T05:40:42;7.09;106.50
61641;HTU21D;62201;49.966;8.342;2023-12-22T05:43:08;7.17;106.17
61641;HTU21D;62201;49.966;8.342;2023-12-22T05:45:33;6.96;108.30
61641;HTU21D;62201;49.966;8.342;2023-12-22T05:47:58;6.66;114.72
61641;HTU21D;62201;49.966;8.342;2023-12-22T05:50:24;6.66;112.35
61641;HTU21D;62201;49.966;8.342;2023-12-22T05:52:49;6.80;109.90
61641;HTU21D;62201;49.966;8.342;2023-12-22T05:55:15;6.84;110.38
61641;HTU21D;62201;49.966;8.342;2023-12-22T05:57:40;6.74;111.67
61641;HTU21D;62201;49.966;8.342;2023-12-22T06:00:06;6.70;111.93
61641;HTU21D;62201;49.966;8.342;2023-12-22T06:02:34;6.73;113.18
61641;HTU21D;62201;49.966;8.342;2023-12-22T06:05:00;6.70;113.58
61641;HTU21D;62201;49.966;8.342;2023-12-22T06:07:26;6.43;118.99
61641;HTU21D;62201;49.966;8.342;2023-12-22T06:09:51;6.55;118.99
61641;HTU21D;62201;49.966;8.342;2023-12-22T06:12:17;6.46;118.99
61641;HTU21D;62201;49.966;8.342;2023-12-22T06:14:42;6.60;118.31
61641;HTU21D;62201;49.966;8.342;2023-12-22T06:17:08;6.48;118.99
61641;HTU21D;62201;49.966;8.342;2023-12-22T06:19:35;6.51;118.83
61641;HTU21D;62201;49.966;8.342;2023-12-22T06:22:00;6.48;118.99
61641;HTU21D;62201;49.966;8.342;2023-12-22T06:24:27;6.53;118.86
61641;HTU21D;62201;49.966;8.342;2023-12-22T06:26:52;6.74;116.57
61641;HTU21D;62201;49.966;8.342;2023-12-22T06:29:18;6.88;115.11
61641;HTU21D;62201;49.966;8.342;2023-12-22T06:31:43;6.76;115.93
61641;HTU21D;62201;49.966;8.342;2023-12-22T06:34:08;6.85;114.61
61641;HTU21D;62201;49.966;8.342;2023-12-22T06:36:34;6.91;114.51
61641;HTU21D;62201;49.966;8.342;2023-12-22T06:38:59;6.80;115.17
61641;HTU21D;62201;49.966;8.342;2023-12-22T06:41:29;6.86;114.38
61641;HTU21D;62201;49.966;8.342;2023-12-22T06:43:58;6.95;113.72
61641;HTU21D;62201;49.966;8.342;2023-12-22T06:46:27;7.17;111.60
61641;HTU21D;62201;49.966;8.342;2023-12-22T06:48:55;7.26;110.71
61641;HTU21D;62201;49.966;8.342;2023-12-22T06:51:25;7.18;110.60
61641;HTU21D;62201;49.966;8.342;2023-12-22T06:53:53;7.33;109.40
61641;HTU21D;62201;49.966;8.342;2023-12-22T06:56:24;7.45;108.32
61641;HTU21D;62201;49.966;8.342;2023-12-22T06:58:51;7.44;108.32
61641;HTU21D;62201;49.966;8.342;2023-12-22T07:01:37;7.41;108.56
61641;HTU21D;62201;49.966;8.342;2023-12-22T07:04:04;7.31;109.03
61641;HTU21D;62201;49.966;8.342;2023-12-22T07:06:31;7.29;109.29
61641;HTU21D;62201;49.966;8.342;2023-12-22T07:11:38;7.70;106.13
61641;HTU21D;62201;49.966;8.342;2023-12-22T07:14:03;7.42;108.11
61641;HTU21D;62201;49.966;8.342;2023-12-22T07:16:29;7.44;107.73
61641;HTU21D;62201;49.966;8.342;2023-12-22T07:18:54;7.77;105.66
61641;HTU21D;62201;49.966;8.342;2023-12-22T07:21:20;7.64;106.32
61641;HTU21D;62201;49.966;8.342;2023-12-22T07:23:46;7.89;104.60
61641;HTU21D;62201;49.966;8.342;2023-12-22T07:26:11;7.73;106.06
61641;HTU21D;62201;49.966;8.342;2023-12-22T07:28:37;7.74;106.25
61641;HTU21D;62201;49.966;8.342;2023-12-22T07:31:03;7.90;104.02
61641;HTU21D;62201;49.966;8.342;2023-12-22T07:33:28;7.87;105.43
61641;HTU21D;62201;49.966;8.342;2023-12-22T07:35:53;8.00;103.62
61641;HTU21D;62201;49.966;8.342;2023-12-22T07:38:20;7.88;104.62
61641;HTU21D;62201;49.966;8.342;2023-12-22T07:40:45;7.94;104.17
61641;HTU21D;62201;49.966;8.342;2023-12-22T07:43:10;7.85;104.78
61641;HTU21D;62201;49.966;8.342;2023-12-22T07:45:36;7.75;104.31
61641;HTU21D;62201;49.966;8.342;2023-12-22T07:48:03;7.94;103.49
61641;HTU21D;62201;49.966;8.342;2023-12-22T07:50:28;8.14;102.49
61641;HTU21D;62201;49.966;8.342;2023-12-22T07:52:54;8.46;99.44
61641;HTU21D;62201;49.966;8.342;2023-12-22T07:55:19;8.47;99.04
61641;HTU21D;62201;49.966;8.342;2023-12-22T07:57:44;8.39;100.05
61641;HTU21D;62201;49.966;8.342;2023-12-22T08:00:11;8.29;101.27
61641;HTU21D;62201;49.966;8.342;2023-12-22T08:02:36;8.48;98.99
61641;HTU21D;62201;49.966;8.342;2023-12-22T08:05:02;8.33;100.36
61641;HTU21D;62201;49.966;8.342;2023-12-22T08:07:27;8.21;101.37
61641;HTU21D;62201;49.966;8.342;2023-12-22T08:09:52;8.12;104.08
61641;HTU21D;62201;49.966;8.342;2023-12-22T08:12:18;8.27;101.51
61641;HTU21D;62201;49.966;8.342;2023-12-22T08:14:43;8.05;107.27
61641;HTU21D;62201;49.966;8.342;2023-12-22T08:17:08;8.18;101.81
61641;HTU21D;62201;49.966;8.342;2023-12-22T08:19:36;8.00;105.23
61641;HTU21D;62201;49.966;8.342;2023-12-22T08:22:02;7.69;118.99
61641;HTU21D;62201;49.966;8.342;2023-12-22T08:24:27;7.54;118.99
61641;HTU21D;62201;49.966;8.342;2023-12-22T08:26:53;7.53;117.35
61641;HTU21D;62201;49.966;8.342;2023-12-22T08:29:19;7.34;118.99
61641;HTU21D;62201;49.966;8.342;2023-12-22T08:31:44;7.18;118.99
61641;HTU21D;62201;49.966;8.342;2023-12-22T08:34:10;7.18;118.99
61641;HTU21D;62201;49.966;8.342;2023-12-22T08:36:35;7.19;118.92
61641;HTU21D;62201;49.966;8.342;2023-12-22T08:39:01;7.31;118.43
61641;HTU21D;62201;49.966;8.342;2023-12-22T08:41:26;7.23;118.99
61641;HTU21D;62201;49.966;8.342;2023-12-22T08:43:52;7.30;118.45
61641;HTU21D;62201;49.966;8.342;2023-12-22T08:46:17;7.23;118.99
61641;HTU21D;62201;49.966;8.342;2023-12-22T08:48:43;7.27;118.90
61641;HTU21D;62201;49.966;8.342;2023-12-22T08:51:08;7.17;118.99
61641;HTU21D;62201;49.966;8.342;2023-12-22T08:53:34;7.14;118.99
61641;HTU21D;62201;49.966;8.342;2023-12-22T08:56:02;7.19;118.99
61641;HTU21D;62201;49.966;8.342;2023-12-22T08:58:29;7.14;118.99
61641;HTU21D;62201;49.966;8.342;2023-12-22T09:00:54;7.08;118.99
61641;HTU21D;62201;49.966;8.342;2023-12-22T09:03:19;7.04;118.99
61641;HTU21D;62201;49.966;8.342;2023-12-22T09:05:45;6.99;118.99
61641;HTU21D;62201;49.966;8.342;2023-12-22T09:08:10;6.99;118.99
61641;HTU21D;62201;49.966;8.342;2023-12-22T09:10:36;6.97;118.99
61641;HTU21D;62201;49.966;8.342;2023-12-22T09:13:01;6.91;118.99
61641;HTU21D;62201;49.966;8.342;2023-12-22T09:15:27;6.86;118.99
61641;HTU21D;62201;49.966;8.342;2023-12-22T09:17:52;6.87;118.99
61641;HTU21D;62201;49.966;8.342;2023-12-22T09:20:19;6.86;118.99
61641;HTU21D;62201;49.966;8.342;2023-12-22T09:22:44;6.86;118.99
61641;HTU21D;62201;49.966;8.342;2023-12-22T09:25:10;6.91;118.99
61641;HTU21D;62201;49.966;8.342;2023-12-22T09:27:35;6.86;118.99
61641;HTU21D;62201;49.966;8.342;2023-12-22T09:30:00;6.84;118.99
61641;HTU21D;62201;49.966;8.342;2023-12-22T09:32:26;6.83;118.99
61641;HTU21D;62201;49.966;8.342;2023-12-22T09:34:52;6.82;118.99
61641;HTU21D;62201;49.966;8.342;2023-12-22T09:37:17;6.94;118.99
61641;HTU21D;62201;49.966;8.342;2023-12-22T09:39:43;7.16;118.99
61641;HTU21D;62201;49.966;8.342;2023-12-22T09:42:08;7.42;118.99
61641;HTU21D;62201;49.966;8.342;2023-12-22T09:44:35;7.55;118.99
61641;HTU21D;62201;49.966;8.342;2023-12-22T09:47:04;7.81;118.99
61641;HTU21D;62201;49.966;8.342;2023-12-22T09:49:30;8.14;117.26
61641;HTU21D;62201;49.966;8.342;2023-12-22T09:51:56;8.00;118.99
61641;HTU21D;62201;49.966;8.342;2023-12-22T09:54:22;8.20;116.64
61641;HTU21D;62201;49.966;8.342;2023-12-22T09:56:50;8.16;117.34
61641;HTU21D;62201;49.966;8.342;2023-12-22T09:59:21;8.39;114.54
61641;HTU21D;62201;49.966;8.342;2023-12-22T10:01:48;8.52;113.37
61641;HTU21D;62201;49.966;8.342;2023-12-22T10:04:16;8.55;112.93
61641;HTU21D;62201;49.966;8.342;2023-12-22T10:06:41;8.49;114.18
61641;HTU21D;62201;49.966;8.342;2023-12-22T10:09:07;8.62;112.09
61641;HTU21D;62201;49.966;8.342;2023-12-22T10:11:35;8.77;109.73
61641;HTU21D;62201;49.966;8.342;2023-12-22T10:14:02;8.80;110.71
61641;HTU21D;62201;49.966;8.342;2023-12-22T10:16:28;9.00;108.87
61641;HTU21D;62201;49.966;8.342;2023-12-22T10:18:54;9.04;108.30
61641;HTU21D;62201;49.966;8.342;2023-12-22T10:21:20;9.01;108.53
61641;HTU21D;62201;49.966;8.342;2023-12-22T10:23:45;9.12;107.15
61641;HTU21D;62201;49.966;8.342;2023-12-22T10:26:14;9.12;106.64
61641;HTU21D;62201;49.966;8.342;2023-12-22T10:28:40;9.19;106.04
61641;HTU21D;62201;49.966;8.342;2023-12-22T10:31:06;9.25;104.67
61641;HTU21D;62201;49.966;8.342;2023-12-22T10:33:33;9.21;105.48
61641;HTU21D;62201;49.966;8.342;2023-12-22T10:35:59;9.27;104.71
61641;HTU21D;62201;49.966;8.342;2023-12-22T10:38:26;9.23;105.06
61641;HTU21D;62201;49.966;8.342;2023-12-22T10:40:52;9.40;103.01
61641;HTU21D;62201;49.966;8.342;2023-12-22T10:43:17;9.33;104.08
61641;HTU21D;62201;49.966;8.342;2023-12-22T10:45:43;9.38;103.92
61641;HTU21D;62201;49.966;8.342;2023-12-22T10:48:08;9.47;102.51
61641;HTU21D;62201;49.966;8.342;2023-12-22T10:50:35;9.38;104.66
61641;HTU21D;62201;49.966;8.342;2023-12-22T10:53:00;9.39;104.37
61641;HTU21D;62201;49.966;8.342;2023-12-22T10:55:26;9.40;103.63
61641;HTU21D;62201;49.966;8.342;2023-12-22T10:57:52;9.40;104.10
61641;HTU21D;62201;49.966;8.342;2023-12-22T11:00:20;9.30;104.60
61641;HTU21D;62201;49.966;8.342;2023-12-22T11:02:49;9.35;104.02
61641;HTU21D;62201;49.966;8.342;2023-12-22T11:05:21;9.32;105.19
61641;HTU21D;62201;49.966;8.342;2023-12-22T11:07:49;9.32;104.92
61641;HTU21D;62201;49.966;8.342;2023-12-22T11:10:19;9.04;118.99
61641;HTU21D;62201;49.966;8.342;2023-12-22T11:12:46;9.33;118.99
61641;HTU21D;62201;49.966;8.342;2023-12-22T11:15:13;9.31;104.82
61641;HTU21D;62201;49.966;8.342;2023-12-22T11:17:39;9.27;104.87
61641;HTU21D;62201;49.966;8.342;2023-12-22T11:20:06;9.27;105.98
61641;HTU21D;62201;49.966;8.342;2023-12-22T11:22:36;9.22;106.01
61641;HTU21D;62201;49.966;8.342;2023-12-22T11:25:02;9.27;105.05
61641;HTU21D;62201;49.966;8.342;2023-12-22T11:27:29;9.27;105.48
61641;HTU21D;62201;49.966;8.342;2023-12-22T11:29:54;9.36;103.97
61641;HTU21D;62201;49.966;8.342;2023-12-22T11:32:20;9.18;107.62
61641;HTU21D;62201;49.966;8.342;2023-12-22T11:34:46;9.33;105.30
61641;HTU21D;62201;49.966;8.342;2023-12-22T11:37:13;9.35;104.94
61641;HTU21D;62201;49.966;8.342;2023-12-22T11:39:43;9.29;106.92
61641;HTU21D;62201;49.966;8.342;2023-12-22T11:42:12;9.18;106.46
61641;HTU21D;62201;49.966;8.342;2023-12-22T11:44:39;8.86;110.90
61641;HTU21D;62201;49.966;8.342;2023-12-22T11:47:09;8.51;118.99
61641;HTU21D;62201;49.966;8.342;2023-12-22T11:49:35;8.58;116.60
61641;HTU21D;62201;49.966;8.342;2023-12-22T11:54:50;8.82;111.91
61641;HTU21D;62201;49.966;8.342;2023-12-22T11:59:55;8.80;112.58
61641;HTU21D;62201;49.966;8.342;2023-12-22T12:02:21;8.89;111.32
61641;HTU21D;62201;49.966;8.342;2023-12-22T12:04:53;8.89;111.52
61641;HTU21D;62201;49.966;8.342;2023-12-22T12:07:46;8.85;111.13
61641;HTU21D;62201;49.966;8.342;2023-12-22T12:13:06;8.88;111.48
61641;HTU21D;62201;49.966;8.342;2023-12-22T12:15:33;8.81;112.62
61641;HTU21D;62201;49.966;8.342;2023-12-22T12:17:59;8.83;113.35
61641;HTU21D;62201;49.966;8.342;2023-12-22T12:20:25;8.75;115.39
61641;HTU21D;62201;49.966;8.342;2023-12-22T12:22:52;8.77;114.77
61641;HTU21D;62201;49.966;8.342;2023-12-22T12:25:22;8.79;115.70
61641;HTU21D;62201;49.966;8.342;2023-12-22T12:27:50;8.89;114.99
61641;HTU21D;62201;49.966;8.342;2023-12-22T12:30:16;9.00;114.64
61641;HTU21D;62201;49.966;8.342;2023-12-22T12:32:43;8.98;115.22
61641;HTU21D;62201;49.966;8.342;2023-12-22T12:35:11;9.04;115.30
61641;HTU21D;62201;49.966;8.342;2023-12-22T12:37:38;9.22;113.96
61641;HTU21D;62201;49.966;8.342;2023-12-22T12:40:07;9.19;114.81
61641;HTU21D;62201;49.966;8.342;2023-12-22T12:42:35;9.15;115.12
61641;HTU21D;62201;49.966;8.342;2023-12-22T12:45:07;9.18;114.69
61641;HTU21D;62201;49.966;8.342;2023-12-22T12:47:32;9.29;114.07
61641;HTU21D;62201;49.966;8.342;2023-12-22T12:49:59;9.33;113.43
61641;HTU21D;62201;49.966;8.342;2023-12-22T12:52:25;9.37;112.94
61641;HTU21D;62201;49.966;8.342;2023-12-22T12:54:50;9.41;112.80
61641;HTU21D;62201;49.966;8.342;2023-12-22T12:57:16;9.46;112.68
61641;HTU21D;62201;49.966;8.342;2023-12-22T12:59:48;9.51;112.40
61641;HTU21D;62201;49.966;8.342;2023-12-22T13:02:15;9.54;112.32
61641;HTU21D;62201;49.966;8.342;2023-12-22T13:04:41;9.70;110.32
61641;HTU21D;62201;49.966;8.342;2023-12-22T13:07:07;9.66;111.02
61641;HTU21D;62201;49.966;8.342;2023-12-22T13:09:34;9.76;110.40
61641;HTU21D;62201;49.966;8.342;2023-12-22T13:12:00;9.97;108.34
61641;HTU21D;62201;49.966;8.342;2023-12-22T13:14:26;10.13;107.04
61641;HTU21D;62201;49.966;8.342;2023-12-22T13:16:53;10.27;106.44
61641;HTU21D;62201;49.966;8.342;2023-12-22T13:19:22;10.50;103.60
61641;HTU21D;62201;49.966;8.342;2023-12-22T13:21:48;10.56;103.04
61641;HTU21D;62201;49.966;8.342;2023-12-22T13:24:15;10.65;102.28
61641;HTU21D;62201;49.966;8.342;2023-12-22T13:26:44;10.58;102.53
61641;HTU21D;62201;49.966;8.342;2023-12-22T13:29:11;10.72;101.77
61641;HTU21D;62201;49.966;8.342;2023-12-22T13:31:38;10.67;101.96
61641;HTU21D;62201;49.966;8.342;2023-12-22T13:34:08;10.79;100.95
61641;HTU21D;62201;49.966;8.342;2023-12-22T13:36:34;10.63;102.48
61641;HTU21D;62201;49.966;8.342;2023-12-22T13:39:02;10.64;101.86
61641;HTU21D;62201;49.966;8.342;2023-12-22T13:41:29;10.64;101.78
61641;HTU21D;62201;49.966;8.342;2023-12-22T13:43:54;10.55;103.05
61641;HTU21D;62201;49.966;8.342;2023-12-22T13:46:21;10.44;103.53
61641;HTU21D;62201;49.966;8.342;2023-12-22T13:48:53;10.41;103.37
61641;HTU21D;62201;49.966;8.342;2023-12-22T13:51:19;10.48;103.62
61641;HTU21D;62201;49.966;8.342;2023-12-22T13:53:48;10.58;102.02
61641;HTU21D;62201;49.966;8.342;2023-12-22T13:56:13;10.63;101.89
61641;HTU21D;62201;49.966;8.342;2023-12-22T13:58:46;10.58;102.21
61641;HTU21D;62201;49.966;8.342;2023-12-22T14:01:15;10.67;101.54
61641;HTU21D;62201;49.966;8.342;2023-12-22T14:03:42;10.77;100.74
61641;HTU21D;62201;49.966;8.342;2023-12-22T14:06:08;10.82;100.17
61641;HTU21D;62201;49.966;8.342;2023-12-22T14:08:35;10.73;101.20
61641;HTU21D;62201;49.966;8.342;2023-12-22T14:11:01;10.89;99.55
61641;HTU21D;62201;49.966;8.342;2023-12-22T14:13:26;10.84;99.77
61641;HTU21D;62201;49.966;8.342;2023-12-22T14:15:52;10.78;100.25
61641;HTU21D;62201;49.966;8.342;2023-12-22T14:18:18;10.81;100.21
61641;HTU21D;62201;49.966;8.342;2023-12-22T14:20:43;10.83;99.99
61641;HTU21D;62201;49.966;8.342;2023-12-22T14:23:09;10.82;100.58
61641;HTU21D;62201;49.966;8.342;2023-12-22T14:25:37;10.79;100.24
61641;HTU21D;62201;49.966;8.342;2023-12-22T14:28:02;10.86;99.45
61641;HTU21D;62201;49.966;8.342;2023-12-22T14:30:28;10.92;99.27
61641;HTU21D;62201;49.966;8.342;2023-12-22T14:32:53;10.89;99.22
61641;HTU21D;62201;49.966;8.342;2023-12-22T14:35:19;10.94;98.49
61641;HTU21D;62201;49.966;8.342;2023-12-22T14:37:45;10.98;98.19
61641;HTU21D;62201;49.966;8.342;2023-12-22T14:40:11;10.93;98.71
61641;HTU21D;62201;49.966;8.342;2023-12-22T14:42:36;10.84;99.31
61641;HTU21D;62201;49.966;8.342;2023-12-22T14:45:02;10.90;98.08
61641;HTU21D;62201;49.966;8.342;2023-12-22T14:47:28;10.86;98.68
61641;HTU21D;62201;49.966;8.342;2023-12-22T14:49:53;10.84;99.03
61641;HTU21D;62201;49.966;8.342;2023-12-22T14:52:18;10.87;98.88
61641;HTU21D;62201;49.966;8.342;2023-12-22T14:54:45;10.84;99.29
61641;HTU21D;62201;49.966;8.342;2023-12-22T14:57:11;10.75;100.54
61641;HTU21D;62201;49.966;8.342;2023-12-22T14:59:36;10.81;99.52
61641;HTU21D;62201;49.966;8.342;2023-12-22T15:02:01;10.95;98.45
61641;HTU21D;62201;49.966;8.342;2023-12-22T15:04:27;10.80;99.59
61641;HTU21D;62201;49.966;8.342;2023-12-22T15:06:52;10.86;99.28
61641;HTU21D;62201;49.966;8.342;2023-12-22T15:09:18;10.98;97.97
61641;HTU21D;62201;49.966;8.342;2023-12-22T15:11:44;10.89;98.34
61641;HTU21D;62201;49.966;8.342;2023-12-22T15:14:10;11.03;96.52
61641;HTU21D;62201;49.966;8.342;2023-12-22T15:16:43;11.01;96.54
61641;HTU21D;62201;49.966;8.342;2023-12-22T15:19:14;11.04;95.75